sensor_id;sensor_type;location;lat;lon;timestamp;pressure;altitude;pressure_sealevel;temperature;humidity
12722;BME280;6425;50.316;8.114;2023-05-12T00:00:00;988;;;11.1;100
12722;BME280;6425;50.316;8.114;2023-05-12T00:03:00;988;;;11.1;100
12722;BME280;6425;50.316;8.114;2023-05-12T00:06:00;988;;;11.1;100
12722;BME280;6425;50.316;8.114;2023-05-12T00:09:00;988;;;11;100
12722;BME280;6425;50.316;8.114;2023-05-12T00:12:00;988;;;10.8;100
12722;BME280;6425;50.316;8.114;2023-05-12T00:15:00;988;;;10.8;100
12722;BME280;6425;50.316;8.114;2023-05-12T00:18:00;988;;;10.8;100
12722;BME280;6425;50.316;8.114;2023-05-12T00:21:00;988;;;10.9;100
12722;BME280;6425;50.316;8.114;2023-05-12T00:24:00;988;;;11.4;100
12722;BME280;6425;50.316;8.114;2023-05-12T00:27:00;988;;;11.5;100
12722;BME280;6425;50.316;8.114;2023-05-12T00:30:00;988;;;11.3;100
12722;BME280;6425;50.316;8.114;2023-05-12T00:33:00;988;;;11.3;100
12722;BME280;6425;50.316;8.114;2023-05-12T00:36:00;988;;;11.3;100
12722;BME280;6425;50.316;8.114;2023-05-12T00:39:00;987;;;11.4;100
12722;BME280;6425;50.316;8.114;2023-05-12T00:42:00;987;;;11.3;100
12722;BME280;6425;50.316;8.114;2023-05-12T00:45:00;987;;;11.1;100
12722;BME280;6425;50.316;8.114;2023-05-12T00:48:00;987;;;11.1;100
12722;BME280;6425;50.316;8.114;2023-05-12T00:51:00;987;;;11.1;100
12722;BME280;6425;50.316;8.114;2023-05-12T00:54:00;987;;;11.5;100
12722;BME280;6425;50.316;8.114;2023-05-12T00:57:00;987;;;11.6;100
12722;BME280;6425;50.316;8.114;2023-05-12T01:00:00;987;;;11.8;100
12722;BME280;6425;50.316;8.114;2023-05-12T01:03:00;987;;;11.9;100
12722;BME280;6425;50.316;8.114;2023-05-12T01:06:03;987;;;12;100
12722;BME280;6425;50.316;8.114;2023-05-12T01:09:00;987;;;12;100
12722;BME280;6425;50.316;8.114;2023-05-12T01:12:00;987;;;12;100
12722;BME280;6425;50.316;8.114;2023-05-12T01:15:00;987;;;12.2;100
12722;BME280;6425;50.316;8.114;2023-05-12T01:18:00;987;;;12;100
12722;BME280;6425;50.316;8.114;2023-05-12T01:21:00;987;;;12;100
12722;BME280;6425;50.316;8.114;2023-05-12T01:24:00;987;;;12.1;100
12722;BME280;6425;50.316;8.114;2023-05-12T01:27:00;987;;;12.1;100
12722;BME280;6425;50.316;8.114;2023-05-12T01:30:00;987;;;12.1;100
12722;BME280;6425;50.316;8.114;2023-05-12T01:33:00;987;;;12.1;100
12722;BME280;6425;50.316;8.114;2023-05-12T01:36:00;987;;;12.1;100
12722;BME280;6425;50.316;8.114;2023-05-12T01:39:00;987;;;12.1;100
12722;BME280;6425;50.316;8.114;2023-05-12T01:42:00;987;;;11.9;100
12722;BME280;6425;50.316;8.114;2023-05-12T01:45:00;987;;;12;100
12722;BME280;6425;50.316;8.114;2023-05-12T01:48:00;987;;;11.9;100
12722;BME280;6425;50.316;8.114;2023-05-12T01:51:00;987;;;11.8;100
12722;BME280;6425;50.316;8.114;2023-05-12T01:54:00;987;;;11.7;100
12722;BME280;6425;50.316;8.114;2023-05-12T01:57:00;987;;;11.8;100
12722;BME280;6425;50.316;8.114;2023-05-12T02:00:00;987;;;11.9;100
12722;BME280;6425;50.316;8.114;2023-05-12T02:03:00;987;;;11.9;100
12722;BME280;6425;50.316;8.114;2023-05-12T02:06:00;987;;;11.9;100
12722;BME280;6425;50.316;8.114;2023-05-12T02:09:00;987;;;11.8;100
12722;BME280;6425;50.316;8.114;2023-05-12T02:12:00;987;;;11.9;100
12722;BME280;6425;50.316;8.114;2023-05-12T02:14:59;987;;;12.1;100
12722;BME280;6425;50.316;8.114;2023-05-12T02:17:59;987;;;12;100
12722;BME280;6425;50.316;8.114;2023-05-12T02:20:59;987;;;12;100
12722;BME280;6425;50.316;8.114;2023-05-12T02:24:00;987;;;11.8;100
12722;BME280;6425;50.316;8.114;2023-05-12T02:27:00;987;;;11.8;100
12722;BME280;6425;50.316;8.114;2023-05-12T02:30:00;987;;;11.8;100
12722;BME280;6425;50.316;8.114;2023-05-12T02:33:00;987;;;11.9;100
12722;BME280;6425;50.316;8.114;2023-05-12T02:36:00;987;;;11.9;100
12722;BME280;6425;50.316;8.114;2023-05-12T02:39:00;987;;;11.9;100
12722;BME280;6425;50.316;8.114;2023-05-12T02:42:00;987;;;11.8;100
12722;BME280;6425;50.316;8.114;2023-05-12T02:45:00;987;;;11.7;100
12722;BME280;6425;50.316;8.114;2023-05-12T02:48:00;987;;;11.6;100
12722;BME280;6425;50.316;8.114;2023-05-12T02:51:00;987;;;11.6;100
12722;BME280;6425;50.316;8.114;2023-05-12T02:54:00;987;;;11.6;100
12722;BME280;6425;50.316;8.114;2023-05-12T02:57:02;987;;;11.7;100
12722;BME280;6425;50.316;8.114;2023-05-12T03:00:00;987;;;11.6;100
12722;BME280;6425;50.316;8.114;2023-05-12T03:03:00;987;;;11.6;100
12722;BME280;6425;50.316;8.114;2023-05-12T03:06:00;987;;;11.7;100
12722;BME280;6425;50.316;8.114;2023-05-12T03:09:00;987;;;11.8;100
12722;BME280;6425;50.316;8.114;2023-05-12T03:12:00;987;;;11.6;100
12722;BME280;6425;50.316;8.114;2023-05-12T03:15:00;987;;;11.6;100
12722;BME280;6425;50.316;8.114;2023-05-12T03:18:00;987;;;11.5;100
12722;BME280;6425;50.316;8.114;2023-05-12T03:21:00;987;;;11.4;100
12722;BME280;6425;50.316;8.114;2023-05-12T03:24:00;987;;;11.3;100
12722;BME280;6425;50.316;8.114;2023-05-12T03:27:00;987;;;11.2;100
12722;BME280;6425;50.316;8.114;2023-05-12T03:30:00;987;;;11.1;100
12722;BME280;6425;50.316;8.114;2023-05-12T03:33:00;987;;;11.2;100
12722;BME280;6425;50.316;8.114;2023-05-12T03:36:00;987;;;11.5;100
12722;BME280;6425;50.316;8.114;2023-05-12T03:39:00;987;;;11.7;100
12722;BME280;6425;50.316;8.114;2023-05-12T03:42:00;987;;;11.7;100
12722;BME280;6425;50.316;8.114;2023-05-12T03:45:00;987;;;11.6;100
12722;BME280;6425;50.316;8.114;2023-05-12T03:48:00;987;;;11.4;100
12722;BME280;6425;50.316;8.114;2023-05-12T03:51:00;988;;;11.3;100
12722;BME280;6425;50.316;8.114;2023-05-12T03:54:00;988;;;11.1;100
12722;BME280;6425;50.316;8.114;2023-05-12T03:57:00;988;;;11;100
12722;BME280;6425;50.316;8.114;2023-05-12T04:00:00;988;;;11;100
12722;BME280;6425;50.316;8.114;2023-05-12T04:03:00;988;;;11;100
12722;BME280;6425;50.316;8.114;2023-05-12T04:06:00;988;;;10.9;100
12722;BME280;6425;50.316;8.114;2023-05-12T04:09:00;988;;;10.9;100
12722;BME280;6425;50.316;8.114;2023-05-12T04:12:00;988;;;10.9;100
12722;BME280;6425;50.316;8.114;2023-05-12T04:15:00;988;;;10.9;100
12722;BME280;6425;50.316;8.114;2023-05-12T04:18:00;988;;;10.9;100
12722;BME280;6425;50.316;8.114;2023-05-12T04:21:00;988;;;10.9;100
12722;BME280;6425;50.316;8.114;2023-05-12T04:24:00;988;;;10.9;100
12722;BME280;6425;50.316;8.114;2023-05-12T04:27:00;988;;;11;100
12722;BME280;6425;50.316;8.114;2023-05-12T04:30:00;988;;;11;100
12722;BME280;6425;50.316;8.114;2023-05-12T04:33:00;988;;;11;100
12722;BME280;6425;50.316;8.114;2023-05-12T04:36:00;988;;;11;100
12722;BME280;6425;50.316;8.114;2023-05-12T04:39:00;988;;;11;100
12722;BME280;6425;50.316;8.114;2023-05-12T04:42:00;988;;;11;100
12722;BME280;6425;50.316;8.114;2023-05-12T04:45:00;988;;;11;100
12722;BME280;6425;50.316;8.114;2023-05-12T04:48:00;988;;;11;100
12722;BME280;6425;50.316;8.114;2023-05-12T04:51:00;988;;;10.9;100
12722;BME280;6425;50.316;8.114;2023-05-12T04:54:00;988;;;10.8;100
12722;BME280;6425;50.316;8.114;2023-05-12T04:57:00;988;;;10.9;100
12722;BME280;6425;50.316;8.114;2023-05-12T05:00:00;988;;;11.1;100
12722;BME280;6425;50.316;8.114;2023-05-12T05:03:00;988;;;11.2;100
12722;BME280;6425;50.316;8.114;2023-05-12T05:06:00;988;;;11.3;100
12722;BME280;6425;50.316;8.114;2023-05-12T05:09:00;988;;;11.2;100
12722;BME280;6425;50.316;8.114;2023-05-12T05:12:00;988;;;11.3;100
12722;BME280;6425;50.316;8.114;2023-05-12T05:15:00;989;;;11.5;100
12722;BME280;6425;50.316;8.114;2023-05-12T05:18:00;989;;;11.6;100
12722;BME280;6425;50.316;8.114;2023-05-12T05:21:00;989;;;11.7;100
12722;BME280;6425;50.316;8.114;2023-05-12T05:24:00;989;;;11.7;100
12722;BME280;6425;50.316;8.114;2023-05-12T05:27:00;989;;;12;100
12722;BME280;6425;50.316;8.114;2023-05-12T05:30:00;989;;;12.1;100
12722;BME280;6425;50.316;8.114;2023-05-12T05:33:00;989;;;11.8;100
12722;BME280;6425;50.316;8.114;2023-05-12T05:36:00;989;;;11.8;100
12722;BME280;6425;50.316;8.114;2023-05-12T05:39:00;989;;;12.1;100
12722;BME280;6425;50.316;8.114;2023-05-12T05:42:00;989;;;12.3;100
12722;BME280;6425;50.316;8.114;2023-05-12T05:45:00;989;;;12.5;100
12722;BME280;6425;50.316;8.114;2023-05-12T05:48:00;989;;;12.5;100
12722;BME280;6425;50.316;8.114;2023-05-12T05:51:00;989;;;12.3;100
12722;BME280;6425;50.316;8.114;2023-05-12T05:54:00;989;;;12.4;100
12722;BME280;6425;50.316;8.114;2023-05-12T05:57:00;989;;;12.4;100
12722;BME280;6425;50.316;8.114;2023-05-12T06:00:00;989;;;12.4;100
12722;BME280;6425;50.316;8.114;2023-05-12T06:03:00;989;;;12.4;100
12722;BME280;6425;50.316;8.114;2023-05-12T06:06:00;989;;;12.2;100
12722;BME280;6425;50.316;8.114;2023-05-12T06:09:00;989;;;12;100
12722;BME280;6425;50.316;8.114;2023-05-12T06:12:00;989;;;12;100
12722;BME280;6425;50.316;8.114;2023-05-12T06:15:00;989;;;12.1;100
12722;BME280;6425;50.316;8.114;2023-05-12T06:18:00;989;;;11.8;100
12722;BME280;6425;50.316;8.114;2023-05-12T06:21:00;989;;;11.9;100
12722;BME280;6425;50.316;8.114;2023-05-12T06:24:00;989;;;11.7;100
12722;BME280;6425;50.316;8.114;2023-05-12T06:27:00;989;;;11.9;100
12722;BME280;6425;50.316;8.114;2023-05-12T06:30:00;989;;;11.9;100
12722;BME280;6425;50.316;8.114;2023-05-12T06:33:00;989;;;11.9;100
12722;BME280;6425;50.316;8.114;2023-05-12T06:36:00;989;;;12;100
12722;BME280;6425;50.316;8.114;2023-05-12T06:39:00;989;;;12.1;100
12722;BME280;6425;50.316;8.114;2023-05-12T06:42:00;989;;;12;100
12722;BME280;6425;50.316;8.114;2023-05-12T06:45:00;989;;;12.2;100
12722;BME280;6425;50.316;8.114;2023-05-12T06:48:00;989;;;12.5;100
12722;BME280;6425;50.316;8.114;2023-05-12T06:51:00;989;;;13;99.9
12722;BME280;6425;50.316;8.114;2023-05-12T06:54:00;989;;;13.1;97
12722;BME280;6425;50.316;8.114;2023-05-12T06:57:00;989;;;13.2;97.1
12722;BME280;6425;50.316;8.114;2023-05-12T07:00:00;989;;;13.2;94.7
12722;BME280;6425;50.316;8.114;2023-05-12T07:03:00;989;;;12.7;95.7
12722;BME280;6425;50.316;8.114;2023-05-12T07:06:00;989;;;12.3;99.1
12722;BME280;6425;50.316;8.114;2023-05-12T07:09:00;989;;;12.3;99.4
12722;BME280;6425;50.316;8.114;2023-05-12T07:12:00;989;;;12.3;99.8
12722;BME280;6425;50.316;8.114;2023-05-12T07:15:00;990;;;12.5;99.5
12722;BME280;6425;50.316;8.114;2023-05-12T07:18:00;990;;;12.7;99.3
12722;BME280;6425;50.316;8.114;2023-05-12T07:21:00;989;;;13.5;97
12722;BME280;6425;50.316;8.114;2023-05-12T07:24:00;989;;;13.7;93
12722;BME280;6425;50.316;8.114;2023-05-12T07:27:00;989;;;13.9;92.1
12722;BME280;6425;50.316;8.114;2023-05-12T07:30:00;989;;;13.6;88.1
12722;BME280;6425;50.316;8.114;2023-05-12T07:33:00;989;;;13.3;89.3
12722;BME280;6425;50.316;8.114;2023-05-12T07:36:00;989;;;13.2;90.9
12722;BME280;6425;50.316;8.114;2023-05-12T07:39:00;990;;;13.3;88.7
12722;BME280;6425;50.316;8.114;2023-05-12T07:42:00;990;;;13;89.8
12722;BME280;6425;50.316;8.114;2023-05-12T07:45:00;990;;;12.9;89.8
12722;BME280;6425;50.316;8.114;2023-05-12T07:48:00;989;;;13.1;88.8
12722;BME280;6425;50.316;8.114;2023-05-12T07:51:00;990;;;13.4;89.8
12722;BME280;6425;50.316;8.114;2023-05-12T07:54:00;990;;;13.6;88.6
12722;BME280;6425;50.316;8.114;2023-05-12T07:57:00;990;;;13.8;87.5
12722;BME280;6425;50.316;8.114;2023-05-12T08:00:00;990;;;13.6;86.2
12722;BME280;6425;50.316;8.114;2023-05-12T08:03:00;990;;;13.2;86.5
12722;BME280;6425;50.316;8.114;2023-05-12T08:06:00;990;;;13.3;87
12722;BME280;6425;50.316;8.114;2023-05-12T08:09:00;990;;;13.5;88.1
12722;BME280;6425;50.316;8.114;2023-05-12T08:12:00;990;;;13.9;85.2
12722;BME280;6425;50.316;8.114;2023-05-12T08:15:00;990;;;13.9;84.4
12722;BME280;6425;50.316;8.114;2023-05-12T08:18:00;990;;;13.7;85.7
12722;BME280;6425;50.316;8.114;2023-05-12T08:21:00;990;;;13.8;84.9
12722;BME280;6425;50.316;8.114;2023-05-12T08:24:00;990;;;13.5;84.6
12722;BME280;6425;50.316;8.114;2023-05-12T08:27:00;990;;;13.5;85.6
12722;BME280;6425;50.316;8.114;2023-05-12T08:30:00;990;;;13.6;86.5
12722;BME280;6425;50.316;8.114;2023-05-12T08:33:00;990;;;13.6;85
12722;BME280;6425;50.316;8.114;2023-05-12T08:36:00;990;;;13.2;87.6
12722;BME280;6425;50.316;8.114;2023-05-12T08:39:00;990;;;13.2;88.3
12722;BME280;6425;50.316;8.114;2023-05-12T08:42:02;990;;;13.4;88.2
12722;BME280;6425;50.316;8.114;2023-05-12T08:45:00;990;;;13.8;87.8
12722;BME280;6425;50.316;8.114;2023-05-12T08:48:00;990;;;14;83.8
12722;BME280;6425;50.316;8.114;2023-05-12T08:51:00;990;;;14.2;82.8
12722;BME280;6425;50.316;8.114;2023-05-12T08:54:00;990;;;14.6;81.7
12722;BME280;6425;50.316;8.114;2023-05-12T08:57:00;990;;;14.3;82.1
12722;BME280;6425;50.316;8.114;2023-05-12T09:00:00;990;;;14.3;80.4
12722;BME280;6425;50.316;8.114;2023-05-12T09:03:00;990;;;14.5;79.3
12722;BME280;6425;50.316;8.114;2023-05-12T09:06:00;990;;;14.7;78
12722;BME280;6425;50.316;8.114;2023-05-12T09:09:00;990;;;15;76.1
12722;BME280;6425;50.316;8.114;2023-05-12T09:12:00;990;;;14.9;77.6
12722;BME280;6425;50.316;8.114;2023-05-12T09:15:02;990;;;15.1;77.5
12722;BME280;6425;50.316;8.114;2023-05-12T09:18:00;990;;;15;75.5
12722;BME280;6425;50.316;8.114;2023-05-12T09:21:00;990;;;15.1;75.3
12722;BME280;6425;50.316;8.114;2023-05-12T09:24:00;990;;;15;73.1
12722;BME280;6425;50.316;8.114;2023-05-12T09:27:00;990;;;14.9;75.7
12722;BME280;6425;50.316;8.114;2023-05-12T09:30:00;990;;;15.1;72.6
12722;BME280;6425;50.316;8.114;2023-05-12T09:33:07;990;;;15.4;72.8
12722;BME280;6425;50.316;8.114;2023-05-12T09:36:00;990;;;15.6;72.2
12722;BME280;6425;50.316;8.114;2023-05-12T09:39:00;990;;;16;71.5
12722;BME280;6425;50.316;8.114;2023-05-12T09:42:00;990;;;15.9;70.6
12722;BME280;6425;50.316;8.114;2023-05-12T09:45:00;990;;;16;70.4
12722;BME280;6425;50.316;8.114;2023-05-12T09:48:06;990;;;16.1;70.7
12722;BME280;6425;50.316;8.114;2023-05-12T09:51:00;990;;;16.1;71
12722;BME280;6425;50.316;8.114;2023-05-12T09:54:00;990;;;16.1;69.1
12722;BME280;6425;50.316;8.114;2023-05-12T09:57:00;990;;;15.7;67.6
12722;BME280;6425;50.316;8.114;2023-05-12T10:00:00;990;;;15.5;67.9
12722;BME280;6425;50.316;8.114;2023-05-12T10:03:00;990;;;15.6;68.3
12722;BME280;6425;50.316;8.114;2023-05-12T10:06:00;990;;;15.6;66.7
12722;BME280;6425;50.316;8.114;2023-05-12T10:09:01;990;;;15.4;65.1
12722;BME280;6425;50.316;8.114;2023-05-12T10:12:00;990;;;15.6;67.7
12722;BME280;6425;50.316;8.114;2023-05-12T10:15:00;990;;;15.6;66.4
12722;BME280;6425;50.316;8.114;2023-05-12T10:18:00;989;;;15.6;65.7
12722;BME280;6425;50.316;8.114;2023-05-12T10:21:00;990;;;15.8;65.7
12722;BME280;6425;50.316;8.114;2023-05-12T10:24:00;989;;;16.1;66.6
12722;BME280;6425;50.316;8.114;2023-05-12T10:27:00;990;;;15.7;65.6
12722;BME280;6425;50.316;8.114;2023-05-12T10:30:00;989;;;15.6;66.4
12722;BME280;6425;50.316;8.114;2023-05-12T10:33:00;990;;;15.6;68.4
12722;BME280;6425;50.316;8.114;2023-05-12T10:36:00;990;;;15.9;69.6
12722;BME280;6425;50.316;8.114;2023-05-12T10:39:03;990;;;16.1;68.3
12722;BME280;6425;50.316;8.114;2023-05-12T10:42:00;989;;;16.1;68.4
12722;BME280;6425;50.316;8.114;2023-05-12T10:45:00;989;;;15.6;68.6
12722;BME280;6425;50.316;8.114;2023-05-12T10:48:03;989;;;15.4;71.2
12722;BME280;6425;50.316;8.114;2023-05-12T10:51:05;989;;;15.2;73.6
12722;BME280;6425;50.316;8.114;2023-05-12T10:54:00;990;;;14.6;74.9
12722;BME280;6425;50.316;8.114;2023-05-12T10:57:00;990;;;14.3;74.4
12722;BME280;6425;50.316;8.114;2023-05-12T11:00:00;990;;;14.2;74.7
12722;BME280;6425;50.316;8.114;2023-05-12T11:03:01;990;;;14.2;75.4
12722;BME280;6425;50.316;8.114;2023-05-12T11:06:00;990;;;14.3;75.9
12722;BME280;6425;50.316;8.114;2023-05-12T11:09:00;990;;;14.4;74.2
12722;BME280;6425;50.316;8.114;2023-05-12T11:12:00;990;;;14.7;74.6
12722;BME280;6425;50.316;8.114;2023-05-12T11:15:00;990;;;15;75.4
12722;BME280;6425;50.316;8.114;2023-05-12T11:18:00;990;;;15.1;75.8
12722;BME280;6425;50.316;8.114;2023-05-12T11:21:07;990;;;15.1;74.8
12722;BME280;6425;50.316;8.114;2023-05-12T11:24:00;990;;;15.3;74.4
12722;BME280;6425;50.316;8.114;2023-05-12T11:27:00;990;;;15.3;74.9
12722;BME280;6425;50.316;8.114;2023-05-12T11:30:00;990;;;15.4;75.1
12722;BME280;6425;50.316;8.114;2023-05-12T11:33:00;990;;;15.8;72.8
12722;BME280;6425;50.316;8.114;2023-05-12T11:36:03;990;;;15.6;73.3
12722;BME280;6425;50.316;8.114;2023-05-12T11:39:00;990;;;15.1;76.5
12722;BME280;6425;50.316;8.114;2023-05-12T11:42:00;990;;;14.9;78.2
12722;BME280;6425;50.316;8.114;2023-05-12T11:45:00;990;;;14.9;81.8
12722;BME280;6425;50.316;8.114;2023-05-12T11:48:07;990;;;14.9;82.2
12722;BME280;6425;50.316;8.114;2023-05-12T11:51:01;990;;;14.4;85.5
12722;BME280;6425;50.316;8.114;2023-05-12T11:54:00;990;;;13.9;89.1
12722;BME280;6425;50.316;8.114;2023-05-12T11:57:00;990;;;13.7;91.4
12722;BME280;6425;50.316;8.114;2023-05-12T12:00:00;990;;;13.7;94.3
12722;BME280;6425;50.316;8.114;2023-05-12T12:03:07;990;;;14.2;96.1
12722;BME280;6425;50.316;8.114;2023-05-12T12:06:00;990;;;14.7;94.1
12722;BME280;6425;50.316;8.114;2023-05-12T12:09:00;990;;;15.1;86.1
12722;BME280;6425;50.316;8.114;2023-05-12T12:12:00;990;;;15.3;80.8
12722;BME280;6425;50.316;8.114;2023-05-12T12:15:00;990;;;15.5;79
12722;BME280;6425;50.316;8.114;2023-05-12T12:18:00;990;;;15.7;71.7
12722;BME280;6425;50.316;8.114;2023-05-12T12:21:00;990;;;16.1;71.6
12722;BME280;6425;50.316;8.114;2023-05-12T12:24:00;990;;;16.8;73.7
12722;BME280;6425;50.316;8.114;2023-05-12T12:27:00;990;;;17.2;71.2
12722;BME280;6425;50.316;8.114;2023-05-12T12:30:00;990;;;16.6;70.3
12722;BME280;6425;50.316;8.114;2023-05-12T12:33:00;990;;;16.5;70.8
12722;BME280;6425;50.316;8.114;2023-05-12T12:36:00;990;;;16.5;70.2
12722;BME280;6425;50.316;8.114;2023-05-12T12:39:00;990;;;16.3;69.8
12722;BME280;6425;50.316;8.114;2023-05-12T12:42:00;990;;;16;69.4
12722;BME280;6425;50.316;8.114;2023-05-12T12:45:00;990;;;16;71
12722;BME280;6425;50.316;8.114;2023-05-12T12:48:00;990;;;16.2;71.2
12722;BME280;6425;50.316;8.114;2023-05-12T12:51:00;990;;;16.3;69.2
12722;BME280;6425;50.316;8.114;2023-05-12T12:54:00;990;;;15.9;72.2
12722;BME280;6425;50.316;8.114;2023-05-12T12:57:00;990;;;15.4;73.4
12722;BME280;6425;50.316;8.114;2023-05-12T13:00:00;990;;;15.5;75.8
12722;BME280;6425;50.316;8.114;2023-05-12T13:03:00;990;;;15.8;76.1
12722;BME280;6425;50.316;8.114;2023-05-12T13:06:00;990;;;16.2;76.2
12722;BME280;6425;50.316;8.114;2023-05-12T13:09:00;990;;;16.1;78
12722;BME280;6425;50.316;8.114;2023-05-12T13:12:00;990;;;16.1;79.2
12722;BME280;6425;50.316;8.114;2023-05-12T13:15:00;990;;;16.3;78.4
12722;BME280;6425;50.316;8.114;2023-05-12T13:18:00;990;;;16.3;77.3
12722;BME280;6425;50.316;8.114;2023-05-12T13:21:00;990;;;16.1;77.6
12722;BME280;6425;50.316;8.114;2023-05-12T13:24:00;990;;;16.2;76.6
12722;BME280;6425;50.316;8.114;2023-05-12T13:27:00;990;;;16.1;76.4
12722;BME280;6425;50.316;8.114;2023-05-12T13:30:00;990;;;16.1;76.7
12722;BME280;6425;50.316;8.114;2023-05-12T13:33:00;990;;;16.4;76.6
12722;BME280;6425;50.316;8.114;2023-05-12T13:36:00;990;;;16.8;73
12722;BME280;6425;50.316;8.114;2023-05-12T13:39:00;990;;;16.8;69.2
12722;BME280;6425;50.316;8.114;2023-05-12T13:42:00;990;;;16.4;67
12722;BME280;6425;50.316;8.114;2023-05-12T13:45:00;990;;;16.5;66.9
12722;BME280;6425;50.316;8.114;2023-05-12T13:48:00;990;;;16.8;66.5
12722;BME280;6425;50.316;8.114;2023-05-12T13:51:00;990;;;16.9;64.8
12722;BME280;6425;50.316;8.114;2023-05-12T13:54:00;990;;;17;64.6
12722;BME280;6425;50.316;8.114;2023-05-12T13:57:00;990;;;17.3;63.2
12722;BME280;6425;50.316;8.114;2023-05-12T14:00:00;990;;;17.3;62.2
12722;BME280;6425;50.316;8.114;2023-05-12T14:03:00;990;;;17.1;63.2
12722;BME280;6425;50.316;8.114;2023-05-12T14:06:00;990;;;16.9;63.7
12722;BME280;6425;50.316;8.114;2023-05-12T14:09:00;990;;;17.1;63.7
12722;BME280;6425;50.316;8.114;2023-05-12T14:12:00;990;;;17.2;63.4
12722;BME280;6425;50.316;8.114;2023-05-12T14:15:00;990;;;17;63.5
12722;BME280;6425;50.316;8.114;2023-05-12T14:18:00;990;;;17;63.3
12722;BME280;6425;50.316;8.114;2023-05-12T14:21:00;990;;;17;62.6
12722;BME280;6425;50.316;8.114;2023-05-12T14:24:00;990;;;17.1;61.8
12722;BME280;6425;50.316;8.114;2023-05-12T14:27:00;990;;;17.3;61.6
12722;BME280;6425;50.316;8.114;2023-05-12T14:30:00;990;;;17.3;60.1
12722;BME280;6425;50.316;8.114;2023-05-12T14:33:00;990;;;17.4;60.8
12722;BME280;6425;50.316;8.114;2023-05-12T14:36:00;990;;;17.3;60.5
12722;BME280;6425;50.316;8.114;2023-05-12T14:39:00;990;;;17.6;60.5
12722;BME280;6425;50.316;8.114;2023-05-12T14:42:00;990;;;18;59.3
12722;BME280;6425;50.316;8.114;2023-05-12T14:45:00;990;;;18.3;57.9
12722;BME280;6425;50.316;8.114;2023-05-12T14:48:00;990;;;18.7;56.7
12722;BME280;6425;50.316;8.114;2023-05-12T14:51:00;990;;;18.1;55.2
12722;BME280;6425;50.316;8.114;2023-05-12T14:54:00;990;;;18;56.8
12722;BME280;6425;50.316;8.114;2023-05-12T14:57:00;990;;;18.2;57
12722;BME280;6425;50.316;8.114;2023-05-12T15:00:00;990;;;18.5;54.9
12722;BME280;6425;50.316;8.114;2023-05-12T15:03:00;990;;;19;53.2
12722;BME280;6425;50.316;8.114;2023-05-12T15:06:00;990;;;19.4;51.6
12722;BME280;6425;50.316;8.114;2023-05-12T15:09:00;990;;;19.3;51.3
12722;BME280;6425;50.316;8.114;2023-05-12T15:12:00;990;;;18.9;52.4
12722;BME280;6425;50.316;8.114;2023-05-12T15:15:00;990;;;19;54.1
12722;BME280;6425;50.316;8.114;2023-05-12T15:18:00;990;;;18.7;53
12722;BME280;6425;50.316;8.114;2023-05-12T15:21:00;990;;;18.7;53.9
12722;BME280;6425;50.316;8.114;2023-05-12T15:24:00;990;;;18.1;54
12722;BME280;6425;50.316;8.114;2023-05-12T15:27:00;990;;;18.4;55.7
12722;BME280;6425;50.316;8.114;2023-05-12T15:30:00;990;;;18.4;56
12722;BME280;6425;50.316;8.114;2023-05-12T15:33:00;990;;;18.3;55.6
12722;BME280;6425;50.316;8.114;2023-05-12T15:36:00;990;;;18.3;55.4
12722;BME280;6425;50.316;8.114;2023-05-12T15:39:00;990;;;18.2;55.5
12722;BME280;6425;50.316;8.114;2023-05-12T15:42:00;990;;;18.2;55.7
12722;BME280;6425;50.316;8.114;2023-05-12T15:45:00;990;;;17.9;56.7
12722;BME280;6425;50.316;8.114;2023-05-12T15:48:00;990;;;17.9;57.3
12722;BME280;6425;50.316;8.114;2023-05-12T15:51:01;990;;;17.6;57.3
12722;BME280;6425;50.316;8.114;2023-05-12T15:54:00;990;;;17.6;58.3
12722;BME280;6425;50.316;8.114;2023-05-12T15:57:00;991;;;17.1;63.4
12722;BME280;6425;50.316;8.114;2023-05-12T16:00:00;990;;;16.6;67.2
12722;BME280;6425;50.316;8.114;2023-05-12T16:03:00;991;;;16.2;69.3
12722;BME280;6425;50.316;8.114;2023-05-12T16:06:00;991;;;15.4;71.3
12722;BME280;6425;50.316;8.114;2023-05-12T16:09:00;991;;;15.3;73.9
12722;BME280;6425;50.316;8.114;2023-05-12T16:12:00;991;;;15.1;73.7
12722;BME280;6425;50.316;8.114;2023-05-12T16:15:00;991;;;15.1;74.7
12722;BME280;6425;50.316;8.114;2023-05-12T16:18:00;991;;;15;75.4
12722;BME280;6425;50.316;8.114;2023-05-12T16:21:00;991;;;14.6;77.7
12722;BME280;6425;50.316;8.114;2023-05-12T16:24:00;991;;;14.6;79.2
12722;BME280;6425;50.316;8.114;2023-05-12T16:27:00;991;;;14.8;78.5
12722;BME280;6425;50.316;8.114;2023-05-12T16:30:00;991;;;14.8;78
12722;BME280;6425;50.316;8.114;2023-05-12T16:33:00;991;;;14.9;77.5
12722;BME280;6425;50.316;8.114;2023-05-12T16:36:00;991;;;15.1;76.5
12722;BME280;6425;50.316;8.114;2023-05-12T16:39:00;991;;;15.2;75.6
12722;BME280;6425;50.316;8.114;2023-05-12T16:42:00;991;;;15.2;75.8
12722;BME280;6425;50.316;8.114;2023-05-12T16:45:00;990;;;15;76.1
12722;BME280;6425;50.316;8.114;2023-05-12T16:48:00;991;;;15.1;76.6
12722;BME280;6425;50.316;8.114;2023-05-12T16:51:00;990;;;15.1;76.7
12722;BME280;6425;50.316;8.114;2023-05-12T16:54:00;990;;;15.3;75.5
12722;BME280;6425;50.316;8.114;2023-05-12T16:57:00;991;;;15.3;75.4
12722;BME280;6425;50.316;8.114;2023-05-12T17:00:00;990;;;15.2;75.7
12722;BME280;6425;50.316;8.114;2023-05-12T17:03:00;991;;;15.2;76
12722;BME280;6425;50.316;8.114;2023-05-12T17:06:00;991;;;15.2;76.5
12722;BME280;6425;50.316;8.114;2023-05-12T17:09:00;991;;;15.2;77.5
12722;BME280;6425;50.316;8.114;2023-05-12T17:12:00;991;;;14.9;79.6
12722;BME280;6425;50.316;8.114;2023-05-12T17:15:00;991;;;15;80.9
12722;BME280;6425;50.316;8.114;2023-05-12T17:18:00;991;;;15;80.7
12722;BME280;6425;50.316;8.114;2023-05-12T17:21:00;991;;;14.9;81.2
12722;BME280;6425;50.316;8.114;2023-05-12T17:24:00;991;;;14.8;82.5
12722;BME280;6425;50.316;8.114;2023-05-12T17:27:00;991;;;14.7;83.6
12722;BME280;6425;50.316;8.114;2023-05-12T17:30:00;991;;;14.8;84.1
12722;BME280;6425;50.316;8.114;2023-05-12T17:33:00;991;;;14.9;83.7
12722;BME280;6425;50.316;8.114;2023-05-12T17:36:00;991;;;14.7;84.1
12722;BME280;6425;50.316;8.114;2023-05-12T17:39:00;991;;;14.7;83.8
12722;BME280;6425;50.316;8.114;2023-05-12T17:42:00;991;;;14.9;83.1
12722;BME280;6425;50.316;8.114;2023-05-12T17:45:00;991;;;14.8;82.6
12722;BME280;6425;50.316;8.114;2023-05-12T17:48:00;991;;;14.8;82.4
12722;BME280;6425;50.316;8.114;2023-05-12T17:51:00;991;;;14.8;82
12722;BME280;6425;50.316;8.114;2023-05-12T17:54:00;991;;;14.8;82.8
12722;BME280;6425;50.316;8.114;2023-05-12T17:57:00;991;;;14.9;82.3